createdAt,value
2016-10-20T00:00:27.721Z,27.32
2016-10-20T00:01:38.439Z,27.36
2016-10-20T00:02:49.210Z,27.27
2016-10-20T00:03:59.970Z,27.27
2016-10-20T00:05:10.685Z,27.29
2016-10-20T00:06:21.412Z,27.24
2016-10-20T00:07:32.165Z,27.28
2016-10-20T00:08:42.899Z,27.21
2016-10-20T00:09:53.622Z,27.25
2016-10-20T00:11:04.363Z,27.27
2016-10-20T00:12:15.115Z,27.21
2016-10-20T00:13:25.857Z,27.25
2016-10-20T00:14:36.607Z,27.09
2016-10-20T00:15:47.327Z,27.17
2016-10-20T00:16:58.069Z,27.17
2016-10-20T00:18:08.820Z,27.13
2016-10-20T00:19:19.545Z,27.09
2016-10-20T00:20:30.264Z,27.06
2016-10-20T00:21:41.022Z,26.94
2016-10-20T00:22:51.776Z,26.91
2016-10-20T00:24:02.522Z,26.88
2016-10-20T00:25:13.260Z,26.84
2016-10-20T00:26:23.988Z,26.73
2016-10-20T00:27:34.718Z,26.67
2016-10-20T00:28:45.438Z,26.63
2016-10-20T00:29:56.183Z,26.6
2016-10-20T00:31:06.897Z,26.54
2016-10-20T00:32:17.621Z,26.39
2016-10-20T00:33:28.359Z,26.28
2016-10-20T00:34:39.079Z,26.1
2016-10-20T00:35:49.814Z,26.1
2016-10-20T00:37:00.544Z,25.82
2016-10-20T00:38:11.785Z,25.67
2016-10-20T00:39:22.565Z,25.54
2016-10-20T00:40:33.286Z,25.47
2016-10-20T00:41:44.021Z,25.32
2016-10-20T00:42:55.279Z,25.14
2016-10-20T00:44:06.045Z,25.09
2016-10-20T00:45:16.767Z,25.02
2016-10-20T00:46:27.502Z,25
2016-10-20T00:47:38.277Z,24.99
2016-10-20T00:48:49.025Z,24.85
2016-10-20T00:49:59.804Z,24.76
2016-10-20T00:51:10.504Z,24.65
2016-10-20T00:52:21.220Z,24.61
2016-10-20T00:53:31.933Z,24.39
2016-10-20T00:54:42.631Z,24.21
2016-10-20T00:55:53.342Z,24.1
2016-10-20T00:57:04.038Z,24.06
2016-10-20T00:58:14.703Z,23.95
2016-10-20T00:59:25.408Z,23.88
2016-10-20T01:00:36.085Z,23.88
2016-10-20T01:01:46.783Z,23.72
2016-10-20T01:02:57.515Z,23.61
2016-10-20T01:04:08.217Z,23.6
2016-10-20T01:05:18.936Z,23.57
2016-10-20T01:06:29.655Z,23.5
2016-10-20T01:07:40.370Z,23.48
2016-10-20T01:08:51.041Z,23.47
2016-10-20T01:10:01.766Z,23.42
2016-10-20T01:11:12.497Z,23.38
2016-10-20T01:12:23.207Z,23.38
2016-10-20T01:13:33.890Z,23.27
2016-10-20T01:14:44.581Z,23.27
2016-10-20T01:15:55.318Z,23.22
2016-10-20T01:17:06.001Z,23.19
2016-10-20T01:18:16.690Z,23.22
2016-10-20T01:19:27.367Z,23.19
2016-10-20T01:20:38.129Z,23.2
2016-10-20T01:21:48.840Z,23.17
2016-10-20T01:22:59.575Z,23.1
2016-10-20T01:24:10.297Z,22.95
2016-10-20T01:25:21.488Z,23
2016-10-20T01:26:32.159Z,22.9
2016-10-20T01:27:42.907Z,22.85
2016-10-20T01:28:53.577Z,22.95
2016-10-20T01:30:04.275Z,22.9
2016-10-20T01:31:14.974Z,22.83
2016-10-20T01:32:25.696Z,22.83
2016-10-20T01:33:36.365Z,23
2016-10-20T01:34:47.043Z,23.01
2016-10-20T01:35:57.737Z,23
2016-10-20T01:37:08.443Z,22.97
2016-10-20T01:38:19.138Z,23
2016-10-20T01:39:29.848Z,23.01
2016-10-20T01:40:40.573Z,22.97
2016-10-20T01:41:51.244Z,22.86
2016-10-20T01:43:01.968Z,22.83
2016-10-20T01:44:12.665Z,22.77
2016-10-20T01:45:23.347Z,22.79
2016-10-20T01:46:34.070Z,22.7
2016-10-20T01:47:44.770Z,22.72
2016-10-20T01:48:55.473Z,22.7
2016-10-20T01:50:06.168Z,22.73
2016-10-20T01:51:16.930Z,22.73
2016-10-20T01:52:27.711Z,22.72
2016-10-20T01:53:38.434Z,22.73
2016-10-20T01:54:49.144Z,22.64
2016-10-20T01:55:59.887Z,22.65
2016-10-20T01:57:10.587Z,22.7
2016-10-20T01:58:21.287Z,22.7
2016-10-20T01:59:32.005Z,22.77
2016-10-20T02:00:42.714Z,22.76
2016-10-20T02:01:53.391Z,22.7
2016-10-20T02:03:04.060Z,22.67
2016-10-20T02:04:14.756Z,22.7
2016-10-20T02:05:25.449Z,22.68
2016-10-20T02:06:36.130Z,22.72
2016-10-20T02:07:46.819Z,22.67
2016-10-20T02:08:57.505Z,22.68
2016-10-20T02:10:08.227Z,22.72
2016-10-20T02:11:18.930Z,22.62
2016-10-20T02:12:29.638Z,22.57
2016-10-20T02:13:40.330Z,22.58
2016-10-20T02:14:51.605Z,22.58
2016-10-20T02:16:02.295Z,22.57
2016-10-20T02:17:13.070Z,22.54
2016-10-20T02:18:23.818Z,22.47
2016-10-20T02:19:34.507Z,22.42
2016-10-20T02:20:45.206Z,22.42
2016-10-20T02:21:55.891Z,22.33
2016-10-20T02:23:06.588Z,22.35
2016-10-20T02:24:17.304Z,22.31
2016-10-20T02:25:28.530Z,22.37
2016-10-20T02:26:39.703Z,22.31
2016-10-20T02:27:50.394Z,22.25
2016-10-20T02:29:01.115Z,22.25
2016-10-20T02:30:11.811Z,22.28
2016-10-20T02:31:22.497Z,22.21
2016-10-20T02:32:33.250Z,22.22
2016-10-20T02:33:43.951Z,22.07
2016-10-20T02:34:54.639Z,22.05
2016-10-20T02:36:05.311Z,22.03
2016-10-20T02:37:16.038Z,22.15
2016-10-20T02:38:26.725Z,22.12
2016-10-20T02:39:37.422Z,21.99
2016-10-20T02:40:48.136Z,22.07
2016-10-20T02:41:59.347Z,22.07
2016-10-20T02:43:11.101Z,22.07
2016-10-20T02:44:22.299Z,22.02
2016-10-20T02:45:33.499Z,22.02
2016-10-20T02:46:44.215Z,22.07
2016-10-20T02:47:54.921Z,22
2016-10-20T02:49:05.712Z,22.03
2016-10-20T02:50:16.411Z,21.99
2016-10-20T02:51:27.082Z,22
2016-10-20T02:52:37.814Z,21.98
2016-10-20T02:53:48.506Z,21.96
2016-10-20T02:54:59.229Z,21.94
2016-10-20T02:56:09.926Z,21.96
2016-10-20T02:57:20.614Z,21.91
2016-10-20T02:58:31.280Z,21.94
2016-10-20T02:59:41.962Z,21.96
2016-10-20T03:00:53.155Z,21.94
2016-10-20T03:02:03.893Z,21.94
2016-10-20T03:03:14.657Z,21.99
2016-10-20T03:04:25.421Z,21.96
2016-10-20T03:05:36.093Z,22.03
2016-10-20T03:06:46.803Z,22
2016-10-20T03:07:57.473Z,22.03
2016-10-20T03:09:08.200Z,22
2016-10-20T03:10:18.861Z,21.98
2016-10-20T03:11:29.542Z,21.99
2016-10-20T03:12:40.258Z,21.91
2016-10-20T03:13:50.956Z,21.84
2016-10-20T03:15:02.181Z,21.84
2016-10-20T03:16:13.410Z,21.91
2016-10-20T03:17:24.130Z,21.9
2016-10-20T03:18:34.841Z,21.91
2016-10-20T03:19:45.534Z,21.9
2016-10-20T03:20:56.730Z,21.84
2016-10-20T03:22:07.526Z,21.86
2016-10-20T03:23:18.259Z,21.9
2016-10-20T03:24:28.968Z,21.8
2016-10-20T03:25:39.688Z,21.8
2016-10-20T03:26:50.376Z,21.88
2016-10-20T03:28:01.122Z,21.86
2016-10-20T03:29:11.834Z,21.92
2016-10-20T03:30:22.548Z,21.88
2016-10-20T03:31:33.286Z,21.84
2016-10-20T03:32:43.991Z,21.84
2016-10-20T03:33:54.725Z,21.88
2016-10-20T03:35:05.962Z,21.9
2016-10-20T03:36:16.685Z,21.83
2016-10-20T03:37:27.425Z,21.8
2016-10-20T03:38:38.158Z,21.75
2016-10-20T03:39:48.914Z,21.67
2016-10-20T03:40:59.627Z,21.77
2016-10-20T03:42:10.366Z,21.68
2016-10-20T03:43:21.081Z,21.65
2016-10-20T03:44:31.822Z,21.67
2016-10-20T03:45:42.539Z,21.65
2016-10-20T03:46:53.288Z,21.59
2016-10-20T03:48:04.033Z,21.67
2016-10-20T03:49:14.763Z,21.67
2016-10-20T03:50:25.466Z,21.69
2016-10-20T03:51:36.204Z,21.79
2016-10-20T03:52:46.945Z,21.8
2016-10-20T03:53:57.670Z,21.82
2016-10-20T03:55:08.410Z,21.77
2016-10-20T03:56:19.156Z,21.8
2016-10-20T03:57:29.894Z,21.75
2016-10-20T03:58:40.595Z,21.72
2016-10-20T03:59:51.408Z,21.65
2016-10-20T04:01:02.720Z,21.56
2016-10-20T04:02:13.980Z,21.58
2016-10-20T04:03:24.687Z,21.67
2016-10-20T04:04:35.916Z,21.58
2016-10-20T04:05:46.652Z,21.62
2016-10-20T04:06:57.391Z,21.5
2016-10-20T04:08:08.126Z,21.58
2016-10-20T04:09:19.377Z,21.53
2016-10-20T04:10:30.096Z,21.56
2016-10-20T04:11:40.821Z,21.59
2016-10-20T04:12:51.538Z,21.67
2016-10-20T04:14:02.260Z,21.54
2016-10-20T04:15:12.983Z,21.59
2016-10-20T04:16:23.690Z,21.53
2016-10-20T04:17:34.387Z,21.62
2016-10-20T04:18:45.133Z,21.52
2016-10-20T04:19:56.413Z,21.65
2016-10-20T04:21:07.202Z,21.56
2016-10-20T04:22:17.991Z,21.61
2016-10-20T04:23:28.715Z,21.62
2016-10-20T04:24:39.440Z,21.64
2016-10-20T04:25:50.145Z,21.52
2016-10-20T04:27:00.883Z,21.64
2016-10-20T04:28:12.128Z,21.52
2016-10-20T04:29:22.849Z,21.61
2016-10-20T04:30:33.552Z,21.59
2016-10-20T04:31:44.275Z,21.61
2016-10-20T04:32:54.997Z,21.65
2016-10-20T04:34:05.694Z,21.69
2016-10-20T04:35:16.410Z,21.59
2016-10-20T04:36:27.116Z,21.64
2016-10-20T04:37:38.336Z,21.65
2016-10-20T04:38:49.060Z,21.68
2016-10-20T04:39:59.791Z,21.67
2016-10-20T04:41:10.507Z,21.71
2016-10-20T04:42:21.291Z,21.62
2016-10-20T04:43:32.045Z,21.62
2016-10-20T04:44:42.765Z,21.59
2016-10-20T04:45:53.479Z,21.61
2016-10-20T04:47:04.191Z,21.56
2016-10-20T04:48:14.923Z,21.56
2016-10-20T04:49:25.661Z,21.56
2016-10-20T04:50:36.410Z,21.53
2016-10-20T04:51:47.128Z,21.56
2016-10-20T04:52:57.866Z,21.52
2016-10-20T04:54:08.541Z,21.59
2016-10-20T04:55:19.263Z,21.59
2016-10-20T04:56:29.992Z,21.64
2016-10-20T04:57:40.746Z,21.65
2016-10-20T04:58:51.495Z,21.64
2016-10-20T05:00:02.236Z,21.59
2016-10-20T05:01:12.932Z,21.56
2016-10-20T05:02:23.649Z,21.53
2016-10-20T05:03:34.386Z,21.62
2016-10-20T05:04:45.151Z,21.67
2016-10-20T05:05:55.846Z,21.72
2016-10-20T05:07:07.046Z,21.74
2016-10-20T05:08:17.754Z,21.77
2016-10-20T05:09:28.446Z,21.74
2016-10-20T05:10:39.148Z,21.77
2016-10-20T05:11:49.875Z,21.74
2016-10-20T05:13:00.598Z,21.72
2016-10-20T05:14:14.872Z,21.71
2016-10-20T05:15:25.560Z,21.72
2016-10-20T05:16:36.255Z,21.65
2016-10-20T05:17:46.951Z,21.72
2016-10-20T05:18:57.689Z,21.64
2016-10-20T05:20:08.412Z,21.67
2016-10-20T05:21:19.136Z,21.67
2016-10-20T05:22:29.832Z,21.59
2016-10-20T05:23:40.543Z,21.58
2016-10-20T05:24:51.241Z,21.59
2016-10-20T05:26:01.982Z,21.54
2016-10-20T05:27:12.694Z,21.67
2016-10-20T05:28:23.427Z,21.68
2016-10-20T05:29:34.133Z,21.61
2016-10-20T05:30:44.847Z,21.62
2016-10-20T05:31:55.560Z,21.64
2016-10-20T05:33:06.275Z,21.56
2016-10-20T05:34:17.002Z,21.59
2016-10-20T05:35:27.756Z,21.5
2016-10-20T05:36:38.461Z,21.59
2016-10-20T05:37:49.184Z,21.58
2016-10-20T05:38:59.898Z,21.53
2016-10-20T05:40:10.599Z,21.58
2016-10-20T05:41:21.331Z,21.68
2016-10-20T05:42:32.093Z,21.69
2016-10-20T05:43:42.824Z,21.79
2016-10-20T05:44:53.532Z,21.68
2016-10-20T05:46:04.742Z,21.62
2016-10-20T05:47:15.677Z,21.67
2016-10-20T05:48:26.374Z,21.64
2016-10-20T05:49:37.072Z,21.65
2016-10-20T05:50:48.311Z,21.67
2016-10-20T05:51:59.127Z,21.53
2016-10-20T05:53:09.827Z,21.59
2016-10-20T05:54:20.536Z,21.52
2016-10-20T05:55:31.250Z,21.52
2016-10-20T05:56:42.009Z,21.59
2016-10-20T05:57:52.697Z,21.53
2016-10-20T05:59:03.427Z,21.5
2016-10-20T06:00:14.151Z,21.58
2016-10-20T06:01:24.874Z,21.59
2016-10-20T06:02:35.592Z,21.68
2016-10-20T06:03:46.327Z,21.67
2016-10-20T06:04:57.049Z,21.58
2016-10-20T06:06:07.753Z,21.59
2016-10-20T06:07:18.458Z,21.53
2016-10-20T06:08:29.194Z,21.44
2016-10-20T06:09:39.909Z,21.42
2016-10-20T06:10:50.609Z,21.34
2016-10-20T06:12:01.344Z,21.35
2016-10-20T06:13:12.057Z,21.44
2016-10-20T06:14:22.766Z,21.38
2016-10-20T06:15:33.469Z,21.37
2016-10-20T06:16:44.169Z,21.4
2016-10-20T06:17:54.863Z,21.38
2016-10-20T06:19:05.589Z,21.34
2016-10-20T06:20:16.316Z,21.43
2016-10-20T06:21:27.303Z,21.35
2016-10-20T06:22:38.501Z,21.46
2016-10-20T06:23:49.232Z,21.38
2016-10-20T06:24:59.991Z,21.47
2016-10-20T06:26:10.709Z,21.49
2016-10-20T06:27:21.922Z,21.53
2016-10-20T06:28:32.636Z,21.53
2016-10-20T06:29:43.348Z,21.44
2016-10-20T06:30:54.022Z,21.43
2016-10-20T06:32:04.713Z,21.46
2016-10-20T06:33:15.414Z,21.35
2016-10-20T06:34:26.122Z,21.32
2016-10-20T06:35:36.885Z,21.35
2016-10-20T06:36:48.145Z,21.34
2016-10-20T06:37:58.848Z,21.32
2016-10-20T06:39:09.566Z,21.37
2016-10-20T06:40:20.414Z,21.31
2016-10-20T06:41:31.109Z,21.24
2016-10-20T06:42:41.816Z,21.38
2016-10-20T06:43:52.520Z,21.4
2016-10-20T06:45:03.260Z,21.38
2016-10-20T06:46:13.967Z,21.34
2016-10-20T06:47:24.678Z,21.4
2016-10-20T06:48:35.389Z,21.37
2016-10-20T06:49:46.150Z,21.42
2016-10-20T06:50:56.857Z,21.42
2016-10-20T06:52:07.610Z,21.53
2016-10-20T06:53:18.291Z,21.46
2016-10-20T06:54:29.001Z,21.46
2016-10-20T06:55:39.730Z,21.52
2016-10-20T06:56:50.433Z,21.53
2016-10-20T06:58:01.649Z,21.4
2016-10-20T06:59:12.364Z,21.46
2016-10-20T07:00:23.099Z,21.38
2016-10-20T07:01:33.802Z,21.42
2016-10-20T07:02:44.502Z,21.49
2016-10-20T07:03:55.767Z,21.38
2016-10-20T07:05:06.471Z,21.34
2016-10-20T07:06:17.188Z,21.22
2016-10-20T07:07:27.903Z,21.28
2016-10-20T07:08:38.606Z,21.27
2016-10-20T07:09:49.333Z,21.24
2016-10-20T07:11:00.065Z,21.35
2016-10-20T07:12:10.771Z,21.24
2016-10-20T07:13:21.477Z,21.25
2016-10-20T07:14:32.190Z,21.21
2016-10-20T07:15:42.892Z,21.13
2016-10-20T07:16:53.590Z,20.95
2016-10-20T07:18:04.329Z,20.84
2016-10-20T07:19:15.037Z,20.82
2016-10-20T07:20:25.771Z,20.77
2016-10-20T07:21:36.516Z,20.61
2016-10-20T07:22:47.267Z,20.64
2016-10-20T07:23:57.968Z,20.47
2016-10-20T07:25:08.684Z,20.58
2016-10-20T07:26:19.377Z,20.47
2016-10-20T07:27:30.134Z,20.47
2016-10-20T07:28:40.846Z,20.32
2016-10-20T07:29:51.541Z,20.26
2016-10-20T07:31:02.262Z,20.26
2016-10-20T07:32:12.994Z,20.23
2016-10-20T07:33:23.760Z,20.24
2016-10-20T07:34:35.396Z,20.2
2016-10-20T07:35:46.117Z,20.1
2016-10-20T07:36:56.835Z,20.16
2016-10-20T07:38:08.130Z,20.11
2016-10-20T07:39:18.845Z,20.23
2016-10-20T07:40:29.541Z,20.05
2016-10-20T07:41:40.260Z,20.08
2016-10-20T07:42:50.963Z,20.05
2016-10-20T07:44:01.677Z,20.11
2016-10-20T07:45:12.405Z,20.11
2016-10-20T07:46:23.130Z,19.98
2016-10-20T07:47:33.882Z,20.06
2016-10-20T07:48:44.621Z,20.06
2016-10-20T07:49:55.353Z,20.08
2016-10-20T07:51:06.033Z,19.99
2016-10-20T07:52:16.729Z,19.98
2016-10-20T07:53:27.507Z,20.06
2016-10-20T07:54:38.215Z,20.02
2016-10-20T07:55:48.891Z,19.96
2016-10-20T07:56:59.602Z,19.88
2016-10-20T07:58:10.352Z,19.88
2016-10-20T07:59:21.064Z,19.83
2016-10-20T08:00:31.811Z,19.88
2016-10-20T08:01:42.515Z,19.84
2016-10-20T08:02:53.228Z,19.83
2016-10-20T08:04:04.053Z,19.92
2016-10-20T08:05:14.827Z,19.95
2016-10-20T08:06:25.559Z,19.98
2016-10-20T08:07:36.274Z,19.86
2016-10-20T08:08:46.982Z,19.8
2016-10-20T08:09:57.764Z,19.84
2016-10-20T08:11:08.482Z,19.88
2016-10-20T08:12:19.216Z,20.01
2016-10-20T08:13:29.930Z,19.83
2016-10-20T08:14:40.621Z,19.87
2016-10-20T08:15:51.353Z,19.95
2016-10-20T08:17:02.063Z,19.95
2016-10-20T08:18:13.297Z,19.99
2016-10-20T08:19:23.993Z,19.98
2016-10-20T08:20:34.742Z,19.98
2016-10-20T08:21:45.484Z,19.99
2016-10-20T08:22:56.220Z,19.94
2016-10-20T08:24:06.920Z,19.98
2016-10-20T08:25:17.620Z,20.08
2016-10-20T08:26:28.377Z,20.17
2016-10-20T08:27:39.093Z,20.11
2016-10-20T08:28:49.819Z,20.17
2016-10-20T08:30:00.533Z,20.14
2016-10-20T08:31:11.229Z,20.23
2016-10-20T08:32:21.970Z,20.24
2016-10-20T08:33:32.680Z,20.28
2016-10-20T08:34:43.396Z,20.32
2016-10-20T08:35:54.083Z,20.32
2016-10-20T08:37:04.778Z,20.35
2016-10-20T08:38:15.484Z,20.51
2016-10-20T08:39:26.209Z,20.58
2016-10-20T08:40:36.906Z,20.55
2016-10-20T08:41:47.667Z,20.57
2016-10-20T08:42:58.334Z,20.54
2016-10-20T08:44:09.042Z,20.52
2016-10-20T08:45:19.740Z,20.5
2016-10-20T08:46:30.456Z,20.51
2016-10-20T08:47:41.164Z,20.48
2016-10-20T08:48:51.912Z,20.39
2016-10-20T08:50:02.633Z,20.42
2016-10-20T08:51:13.328Z,20.51
2016-10-20T08:52:24.556Z,20.51
2016-10-20T08:53:35.240Z,20.32
2016-10-20T08:54:45.993Z,20.23
2016-10-20T08:55:56.683Z,20.05
2016-10-20T08:57:07.396Z,20.08
2016-10-20T08:58:18.142Z,20.06
2016-10-20T08:59:28.870Z,20.14
2016-10-20T09:00:39.623Z,20.11
2016-10-20T09:01:50.369Z,19.99
2016-10-20T09:03:01.077Z,20.05
2016-10-20T09:04:11.802Z,20.05
2016-10-20T09:05:22.552Z,20.1
2016-10-20T09:06:33.255Z,20.05
2016-10-20T09:07:43.961Z,20.18
2016-10-20T09:08:54.672Z,20.08
2016-10-20T09:10:05.894Z,20.08
2016-10-20T09:11:16.571Z,20.06
2016-10-20T09:12:27.317Z,20.06
2016-10-20T09:13:38.033Z,20.13
2016-10-20T09:14:48.732Z,20.21
2016-10-20T09:15:59.454Z,20.17
2016-10-20T09:17:10.145Z,20.24
2016-10-20T09:18:20.906Z,20.2
2016-10-20T09:19:31.624Z,20.26
2016-10-20T09:20:42.333Z,20.28
2016-10-20T09:21:53.087Z,20.28
2016-10-20T09:23:04.296Z,20.28
2016-10-20T09:24:15.014Z,20.31
2016-10-20T09:25:25.727Z,20.29
2016-10-20T09:26:36.469Z,20.35
2016-10-20T09:27:47.171Z,20.29
2016-10-20T09:28:57.885Z,20.36
2016-10-20T09:30:08.578Z,20.32
2016-10-20T09:31:19.803Z,20.28
2016-10-20T09:32:30.554Z,20.33
2016-10-20T09:33:41.251Z,20.33
2016-10-20T09:34:51.966Z,20.42
2016-10-20T09:36:02.735Z,20.31
2016-10-20T09:37:13.450Z,20.35
2016-10-20T09:38:24.145Z,20.32
2016-10-20T09:39:34.846Z,20.38
2016-10-20T09:40:45.570Z,20.48
2016-10-20T09:41:56.278Z,20.36
2016-10-20T09:43:07.069Z,20.43
2016-10-20T09:44:18.285Z,20.48
2016-10-20T09:45:29.004Z,20.5
2016-10-20T09:46:39.698Z,20.41
2016-10-20T09:47:50.424Z,20.35
2016-10-20T09:49:01.128Z,20.29
2016-10-20T09:50:11.817Z,20.28
2016-10-20T09:51:22.546Z,20.29
2016-10-20T09:52:33.351Z,20.31
2016-10-20T09:53:44.088Z,20.41
2016-10-20T09:54:54.775Z,20.35
2016-10-20T09:56:05.479Z,20.42
2016-10-20T09:57:16.690Z,20.43
2016-10-20T09:58:27.386Z,20.48
2016-10-20T09:59:38.102Z,20.47
2016-10-20T10:00:48.802Z,20.5
2016-10-20T10:01:59.503Z,20.43
2016-10-20T10:03:10.238Z,20.62
2016-10-20T10:04:20.953Z,20.51
2016-10-20T10:05:31.667Z,20.66
2016-10-20T10:06:42.355Z,20.59
2016-10-20T10:07:53.072Z,20.7
2016-10-20T10:09:03.795Z,20.84
2016-10-20T10:10:14.538Z,20.8
2016-10-20T10:11:25.217Z,20.92
2016-10-20T10:12:35.915Z,20.94
2016-10-20T10:13:46.605Z,20.97
2016-10-20T10:14:57.324Z,20.95
2016-10-20T10:16:08.008Z,21.12
2016-10-20T10:17:18.747Z,21.16
2016-10-20T10:18:29.465Z,21.19
2016-10-20T10:19:40.213Z,21.28
2016-10-20T10:20:50.957Z,21.34
2016-10-20T10:22:01.670Z,21.46
2016-10-20T10:23:12.924Z,21.53
2016-10-20T10:24:23.622Z,21.54
2016-10-20T10:25:34.337Z,21.59
2016-10-20T10:26:45.031Z,21.56
2016-10-20T10:27:55.735Z,21.8
2016-10-20T10:29:06.452Z,21.75
2016-10-20T10:30:17.143Z,21.92
2016-10-20T10:31:27.860Z,21.99
2016-10-20T10:32:38.571Z,22.06
2016-10-20T10:33:49.265Z,22.05
2016-10-20T10:34:59.980Z,22.1
2016-10-20T10:36:10.692Z,22.33
2016-10-20T10:37:21.415Z,22.4
2016-10-20T10:38:32.140Z,22.55
2016-10-20T10:39:42.848Z,22.57
2016-10-20T10:40:53.551Z,22.75
2016-10-20T10:42:04.265Z,22.7
2016-10-20T10:43:15.016Z,22.76
2016-10-20T10:44:25.753Z,22.79
2016-10-20T10:45:36.452Z,22.88
2016-10-20T10:46:47.140Z,22.86
2016-10-20T10:47:57.889Z,22.88
2016-10-20T10:49:08.605Z,22.97
2016-10-20T10:50:19.326Z,23.01
2016-10-20T10:51:30.019Z,23.04
2016-10-20T10:52:40.847Z,23.27
2016-10-20T10:53:51.549Z,23.61
2016-10-20T10:55:02.786Z,23.8
2016-10-20T10:56:13.507Z,23.88
2016-10-20T10:57:24.226Z,23.88
2016-10-20T10:58:34.935Z,23.95
2016-10-20T10:59:45.646Z,23.91
2016-10-20T11:00:56.361Z,24.15
2016-10-20T11:02:07.196Z,24.39
2016-10-20T11:03:18.044Z,24.68
2016-10-20T11:04:28.783Z,24.8
2016-10-20T11:05:39.710Z,24.78
2016-10-20T11:06:50.762Z,24.6
2016-10-20T11:08:01.482Z,24.6
2016-10-20T11:09:12.255Z,24.6
2016-10-20T11:10:23.716Z,24.81
2016-10-20T11:11:34.466Z,24.88
2016-10-20T11:12:45.168Z,24.85
2016-10-20T11:13:55.908Z,24.85
2016-10-20T11:15:06.624Z,24.99
2016-10-20T11:16:17.346Z,25.2
2016-10-20T11:17:28.053Z,25.03
2016-10-20T11:18:38.829Z,24.99
2016-10-20T11:19:49.562Z,25.21
2016-10-20T11:21:00.271Z,25.43
2016-10-20T11:22:11.024Z,25.64
2016-10-20T11:23:21.736Z,25.57
2016-10-20T11:24:32.575Z,25.62
2016-10-20T11:25:43.306Z,26.07
2016-10-20T11:26:54.028Z,26.29
2016-10-20T11:28:04.756Z,26.17
2016-10-20T11:29:15.475Z,26.26
2016-10-20T11:30:26.184Z,26.36
2016-10-20T11:31:36.924Z,26.55
2016-10-20T11:32:47.662Z,26.7
2016-10-20T11:33:58.400Z,27.04
2016-10-20T11:35:09.118Z,27.29
2016-10-20T11:36:19.854Z,27.43
2016-10-20T11:37:30.558Z,27.66
2016-10-20T11:38:41.299Z,27.87
2016-10-20T11:39:52.102Z,28.15
2016-10-20T11:41:02.823Z,28.24
2016-10-20T11:42:13.564Z,28.58
2016-10-20T11:43:24.287Z,28.64
2016-10-20T11:44:35.016Z,28.33
2016-10-20T11:45:45.725Z,28.15
2016-10-20T11:46:56.421Z,27.96
2016-10-20T11:48:07.155Z,27.93
2016-10-20T11:49:17.872Z,27.82
2016-10-20T11:50:28.642Z,28.04
2016-10-20T11:51:39.379Z,28.37
2016-10-20T11:52:50.327Z,28.56
2016-10-20T11:54:01.036Z,28.78
2016-10-20T11:55:11.739Z,28.76
2016-10-20T11:56:22.459Z,28.93
2016-10-20T11:57:33.188Z,28.74
2016-10-20T11:58:43.923Z,28.95
2016-10-20T11:59:54.778Z,28.93
2016-10-20T12:01:05.575Z,29.26
2016-10-20T12:02:16.365Z,29.28
2016-10-20T12:03:27.073Z,29.08
2016-10-20T12:04:37.830Z,28.98
2016-10-20T12:05:48.578Z,29.08
2016-10-20T12:06:59.836Z,28.9
2016-10-20T12:08:10.553Z,28.96
2016-10-20T12:09:21.310Z,29.19
2016-10-20T12:10:32.006Z,28.93
2016-10-20T12:11:43.220Z,28.8
2016-10-20T12:12:53.949Z,28.81
2016-10-20T12:14:04.663Z,28.81
2016-10-20T12:15:15.402Z,28.55
2016-10-20T12:16:26.382Z,28.61
2016-10-20T12:17:37.274Z,28.55
2016-10-20T12:18:48.496Z,28.09
2016-10-20T12:19:59.254Z,27.72
2016-10-20T12:21:09.991Z,27.62
2016-10-20T12:22:20.718Z,27.82
2016-10-20T12:23:31.456Z,27.97
2016-10-20T12:24:42.181Z,28.31
2016-10-20T12:25:52.899Z,28.39
2016-10-20T12:27:04.186Z,28.7
2016-10-20T12:28:14.913Z,28.93
2016-10-20T12:29:25.676Z,29.28
2016-10-20T12:30:36.410Z,29.26
2016-10-20T12:31:47.675Z,29.11
2016-10-20T12:32:58.428Z,29.23
2016-10-20T12:34:09.140Z,29.09
2016-10-20T12:35:19.900Z,28.68
2016-10-20T12:36:30.624Z,28.76
2016-10-20T12:37:41.353Z,28.76
2016-10-20T12:38:52.057Z,28.61
2016-10-20T12:40:03.304Z,28.62
2016-10-20T12:41:14.021Z,28.74
2016-10-20T12:42:25.225Z,28.76
2016-10-20T12:43:35.939Z,28.86
2016-10-20T12:44:46.643Z,28.64
2016-10-20T12:45:57.348Z,28.36
2016-10-20T12:47:08.602Z,28.33
2016-10-20T12:48:19.343Z,28.25
2016-10-20T12:49:30.116Z,28.29
2016-10-20T12:50:40.872Z,28.3
2016-10-20T12:51:51.617Z,28.36
2016-10-20T12:53:02.356Z,28.77
2016-10-20T12:54:13.117Z,29.06
2016-10-20T12:55:23.827Z,29.04
2016-10-20T12:56:35.055Z,29.18
2016-10-20T12:57:45.760Z,29.39
2016-10-20T12:58:56.483Z,29.52
2016-10-20T13:00:07.759Z,29.61
2016-10-20T13:01:18.498Z,29.53
2016-10-20T13:02:29.240Z,29.45
2016-10-20T13:03:39.949Z,29.27
2016-10-20T13:04:51.212Z,29.02
2016-10-20T13:06:02.298Z,29.21
2016-10-20T13:07:13.529Z,29.71
2016-10-20T13:08:24.239Z,30.17
2016-10-20T13:09:35.512Z,30.22
2016-10-20T13:10:46.218Z,30.32
2016-10-20T13:11:56.931Z,30.34
2016-10-20T13:13:07.659Z,30.39
2016-10-20T13:14:18.368Z,30.08
2016-10-20T13:15:29.109Z,29.8
2016-10-20T13:16:40.342Z,29.68
2016-10-20T13:17:51.075Z,29.68
2016-10-20T13:19:01.814Z,30.02
2016-10-20T13:20:12.537Z,30.19
2016-10-20T13:21:23.302Z,30.32
2016-10-20T13:22:34.032Z,30.38
2016-10-20T13:23:44.760Z,30.45
2016-10-20T13:24:55.554Z,30.57
2016-10-20T13:26:06.327Z,30.65
2016-10-20T13:27:17.061Z,30.24
2016-10-20T13:28:27.806Z,29.83
2016-10-20T13:29:38.546Z,29.82
2016-10-20T13:30:49.271Z,29.74
2016-10-20T13:31:59.989Z,29.74
2016-10-20T13:33:10.719Z,29.82
2016-10-20T13:34:21.942Z,29.9
2016-10-20T13:35:32.658Z,30.11
2016-10-20T13:36:43.442Z,30.57
2016-10-20T13:37:54.199Z,31.02
2016-10-20T13:39:04.942Z,31.25
2016-10-20T13:40:15.687Z,31.23
2016-10-20T13:41:26.690Z,31.46
2016-10-20T13:42:37.470Z,31.46
2016-10-20T13:43:48.215Z,31.7
2016-10-20T13:44:58.999Z,32.03
2016-10-20T13:46:09.731Z,32.06
2016-10-20T13:47:20.462Z,31.39
2016-10-20T13:48:32.231Z,30.75
2016-10-20T13:49:43.519Z,30.49
2016-10-20T13:50:54.253Z,30.58
2016-10-20T13:52:04.984Z,31.2
2016-10-20T13:53:15.684Z,31.44
2016-10-20T13:54:26.399Z,31.29
2016-10-20T13:55:37.128Z,31.57
2016-10-20T13:56:47.856Z,31.69
2016-10-20T13:57:58.578Z,31.81
2016-10-20T13:59:09.303Z,32.03
2016-10-20T14:00:20.550Z,32.52
2016-10-20T14:01:31.271Z,32.89
2016-10-20T14:02:41.979Z,32.5
2016-10-20T14:03:52.705Z,32.23
2016-10-20T14:05:04.161Z,32.4
2016-10-20T14:06:14.913Z,32.22
2016-10-20T14:07:26.382Z,31.73
2016-10-20T14:08:37.104Z,31.85
2016-10-20T14:09:48.533Z,31.68
2016-10-20T14:10:59.251Z,31.76
2016-10-20T14:12:09.969Z,31.78
2016-10-20T14:13:20.721Z,31.8
2016-10-20T14:14:31.998Z,31.95
2016-10-20T14:15:42.844Z,31.92
2016-10-20T14:16:53.580Z,31.78
2016-10-20T14:18:04.509Z,31.96
2016-10-20T14:19:15.919Z,32.23
2016-10-20T14:20:26.668Z,32.13
2016-10-20T14:21:38.401Z,31.85
2016-10-20T14:22:49.513Z,32.03
2016-10-20T14:24:00.303Z,32.32
2016-10-20T14:25:11.006Z,32.78
2016-10-20T14:26:21.743Z,33.22
2016-10-20T14:27:32.714Z,33.76
2016-10-20T14:28:43.440Z,34.32
2016-10-20T14:29:54.160Z,34.5
2016-10-20T14:31:04.911Z,34.47
2016-10-20T14:32:16.163Z,33.71
2016-10-20T14:33:26.888Z,33.09
2016-10-20T14:34:37.648Z,32.85
2016-10-20T14:35:48.361Z,32.99
2016-10-20T14:36:59.095Z,33.34
2016-10-20T14:38:10.032Z,33.26
2016-10-20T14:39:21.300Z,33.18
2016-10-20T14:40:32.083Z,32.82
2016-10-20T14:41:42.792Z,32.69
2016-10-20T14:42:53.532Z,32.97
2016-10-20T14:44:04.274Z,33.18
2016-10-20T14:45:15.049Z,33.56
2016-10-20T14:46:25.755Z,33.93
2016-10-20T14:47:36.687Z,34.28
2016-10-20T14:48:47.424Z,34.31
2016-10-20T14:49:58.167Z,34.35
2016-10-20T14:51:08.913Z,34.69
2016-10-20T14:52:19.645Z,34.64
2016-10-20T14:53:30.384Z,34.19
2016-10-20T14:54:41.243Z,34.37
2016-10-20T14:55:51.971Z,34.73
2016-10-20T14:57:02.679Z,34.97
2016-10-20T14:58:13.409Z,35.33
2016-10-20T14:59:24.144Z,35.03
2016-10-20T15:00:34.866Z,35.14
2016-10-20T15:01:45.643Z,35.4
2016-10-20T15:02:56.362Z,35.68
2016-10-20T15:04:07.098Z,35.78
2016-10-20T15:05:17.831Z,36
2016-10-20T15:06:29.595Z,36.29
2016-10-20T15:07:40.344Z,36.54
2016-10-20T15:08:51.082Z,36.46
2016-10-20T15:10:01.870Z,36.2
2016-10-20T15:11:12.642Z,36.32
2016-10-20T15:12:23.373Z,36.62
2016-10-20T15:13:34.645Z,36.66
2016-10-20T15:14:45.383Z,36.56